Prospect, Pennsylvania
Current Conditions -  °F | °C
As of 4:15 PM on Wednesday 26 Nov 2014 (Local Time) from KBTP Reporting Station
Overcast Overcast  
Wind Chill: 32°   Ceiling: 600
Heat Index: 32°   Visibility: 5mi
Dew Point: 30°   Wind: 3mph
Humidity: 93%   Direction: 40°NE
Pressure: 30.01"   Gusts: NA
Location:  40.9°N, 80.05°W
Report Text: KBTP 262115Z AUTO 04003KT 5SM BKN006 BKN010 OVC015 00/M01 A3001 RMK AO1
Loading
Personal Weather Stations






























Interactive Weather Map New forecast layout! Learn more

10-Day Weather Forecast

Advertisements
Track Severe Weather on mobile